This is the latest recevied weather packets stored in our database for station/object W4CKA. If no packets are shown the sender has not sent any weather packets the latest 10 day(s).
| Time | Temp. | Humidity | Pressure | Rain* | Wind** | Luminosity | Snow |
|---|---|---|---|---|---|---|---|
| 1787687002 | 28.89° C | 53% | 1060 hPa | 0 mm | - | 565 W/m² | - |
| 1787686398 | 27.78° C | 55% | 1060.2 hPa | 0 mm | - | 481 W/m² | - |
| 1787685795 | 26.67° C | 57% | 1060.3 hPa | 0 mm | - | 635 W/m² | - |
| 1787685190 | 27.78° C | 59% | 1060.1 hPa | 0 mm | - | 641 W/m² | - |
| 1787684587 | 27.78° C | 52% | 1060.5 hPa | 0 mm | - | 456 W/m² | - |
| 1787683983 | 26.67° C | 56% | 1060.5 hPa | 0 mm | - | 557 W/m² | - |
| 1787683382 | 26.67° C | 61% | 1060.6 hPa | 0 mm | - | 635 W/m² | - |
| 1787682781 | 26.67° C | 63% | 1060.9 hPa | 0 mm | - | 588 W/m² | - |
| 1787682178 | 26.11° C | 64% | 1060.8 hPa | 0 mm | - | 560 W/m² | - |
| 1787681573 | 27.22° C | 59% | 1061 hPa | 0 mm | - | 602 W/m² | - |
| 1787680970 | 26.67° C | 59% | 1061.3 hPa | 0 mm | - | 535 W/m² | - |
| 1787680368 | 26.67° C | 63% | 1061.3 hPa | 0 mm | - | 653 W/m² | - |
| 1787679767 | 26.11° C | 63% | 1061.6 hPa | 0 mm | - | 588 W/m² | - |
| 1787679163 | 25.56° C | 67% | 1061.4 hPa | 0 mm | - | 636 W/m² | - |
| 1787678563 | 26.11° C | 63% | 1061.4 hPa | 0 mm | - | 613 W/m² | - |
| 1787677959 | 25° C | 68% | 1061.5 hPa | 0 mm | - | 621 W/m² | - |
| 1787677359 | 25° C | 65% | 1061.5 hPa | 0 mm | - | 592 W/m² | - |
| 1787676754 | 24.44° C | 66% | 1061.9 hPa | 0 mm | - | 517 W/m² | - |
| 1787676152 | 25.56° C | 66% | 1061.9 hPa | 0 mm | - | 532 W/m² | - |
| 1787675549 | 24.44° C | 67% | 1061.9 hPa | 0 mm | - | 643 W/m² | - |
| 1787674947 | 25° C | 64% | 1061.8 hPa | 0 mm | - | 517 W/m² | - |
| 1787674345 | 24.44° C | 68% | 1062.1 hPa | 0 mm | - | 664 W/m² | - |
| 1787673740 | 23.89° C | 68% | 1062 hPa | 0 mm | - | 674 W/m² | - |
| 1787673135 | 23.89° C | 68% | 1062.3 hPa | 0 mm | - | 573 W/m² | - |
| 1787672531 | 23.33° C | 68% | 1062.3 hPa | 0 mm | - | 621 W/m² | - |
* Rain latest hour (hover to see other rain measurements)
** Current wind speed in m/s (hover to see current wind gust speed)